Time;durP1;ratioP1;P1;durP2;ratioP2;P2;SDS_P1;SDS_P2;PMS_P1;PMS_P2;Temp;Humidity;BMP_temperature;BMP_pressure;BME280_temperature;BME280_humidity;BME280_pressure;Samples;Min_cycle;Max_cycle;Signal;HPM_P1;HPM_P2
2021/12/10 00:03:17;;;;;;;7.83;4.97;;;;;3.60;99107.00;;;;10456687;28;20205;-78
2021/12/10 00:08:59;;;;;;;9.07;4.63;;;;;3.70;99094.00;;;;10463613;28;20567;-77
2021/12/10 00:14:35;;;;;;;18.47;5.33;;;;;3.70;99076.00;;;;10467472;28;20640;-78
2021/12/10 00:20:14;;;;;;;8.43;4.13;;;;;3.70;99049.00;;;;10494394;28;20193;-78
2021/12/10 00:25:55;;;;;;;5.63;3.63;;;;;3.70;99027.00;;;;10466672;28;20193;-78
2021/12/10 00:37:16;;;;;;;9.03;4.40;;;;;3.60;98997.00;;;;10511754;28;20216;-78
2021/12/10 00:42:52;;;;;;;9.17;4.30;;;;;3.50;98979.00;;;;10478052;28;20190;-78
2021/12/10 00:48:28;;;;;;;11.70;4.17;;;;;3.60;98975.00;;;;10450281;28;20197;-78
2021/12/10 00:54:04;;;;;;;13.70;4.13;;;;;3.60;98954.00;;;;10473739;28;20236;-78
2021/12/10 00:59:40;;;;;;;10.23;3.60;;;;;3.60;98946.00;;;;10466297;28;20194;-78
2021/12/10 01:05:16;;;;;;;8.93;4.13;;;;;3.70;98935.00;;;;10443857;28;20271;-77
2021/12/10 01:11:17;;;;;;;9.30;3.50;;;;;3.80;98929.00;;;;10471411;28;20205;-78
2021/12/10 01:29:03;;;;;;;12.23;3.80;;;;;4.00;98873.00;;;;10461943;28;20201;-78
2021/12/10 01:34:40;;;;;;;5.13;3.10;;;;;4.00;98879.00;;;;10452098;28;20221;-78
2021/12/10 01:40:20;;;;;;;7.53;2.77;;;;;4.00;98852.00;;;;10485741;28;20258;-78
2021/12/10 01:46:06;;;;;;;4.07;2.90;;;;;4.10;98841.00;;;;10480636;28;20534;-78
2021/12/10 01:51:44;;;;;;;6.83;2.60;;;;;4.10;98828.00;;;;10452871;28;20212;-77
2021/12/10 01:57:21;;;;;;;6.70;3.00;;;;;4.10;98814.00;;;;10476927;28;20196;-78
2021/12/10 02:02:57;;;;;;;7.27;3.47;;;;;4.10;98802.00;;;;10443117;28;20557;-78
2021/12/10 02:08:33;;;;;;;7.73;2.53;;;;;4.10;98794.00;;;;10424714;28;20187;-78
2021/12/10 02:14:10;;;;;;;10.43;3.23;;;;;4.20;98793.00;;;;10442824;28;20204;-78
2021/12/10 02:19:46;;;;;;;7.30;2.80;;;;;4.30;98785.00;;;;10445459;28;20211;-77
2021/12/10 02:25:30;;;;;;;8.43;2.00;;;;;4.30;98767.00;;;;10456710;28;20189;-78
2021/12/10 02:31:07;;;;;;;5.20;1.90;;;;;4.40;98757.00;;;;10418591;28;20569;-78
2021/12/10 02:36:43;;;;;;;6.70;2.13;;;;;4.40;98743.00;;;;10423584;28;20193;-78
2021/12/10 02:42:19;;;;;;;5.60;2.00;;;;;4.50;98740.00;;;;10444037;28;20201;-79
2021/12/10 02:47:56;;;;;;;5.97;1.27;;;;;4.50;98726.00;;;;10436588;28;20193;-78
2021/12/10 02:53:40;;;;;;;2.33;1.17;;;;;4.60;98721.00;;;;10435219;28;20201;-78
2021/12/10 02:59:16;;;;;;;5.87;1.33;;;;;4.60;98704.00;;;;10402350;28;20197;-78
2021/12/10 03:04:52;;;;;;;4.63;0.90;;;;;4.60;98688.00;;;;10452624;28;20229;-78
2021/12/10 03:10:32;;;;;;;6.03;1.43;;;;;4.50;98672.00;;;;10465396;28;20593;-79
2021/12/10 03:16:09;;;;;;;3.43;0.70;;;;;4.50;98655.00;;;;10448655;28;20204;-79
2021/12/10 03:21:45;;;;;;;4.13;1.27;;;;;4.40;98657.00;;;;10486116;28;20189;-79
2021/12/10 03:27:22;;;;;;;2.60;1.00;;;;;4.40;98636.00;;;;10496723;28;20723;-79
2021/12/10 03:32:58;;;;;;;0.67;0.60;;;;;4.30;98624.00;;;;10499232;28;20239;-79
2021/12/10 03:38:34;;;;;;;0.97;0.50;;;;;4.30;98614.00;;;;10479942;28;20212;-80
2021/12/10 03:44:10;;;;;;;0.90;0.70;;;;;4.20;98600.00;;;;10445816;28;20189;-79
2021/12/10 03:49:47;;;;;;;2.47;0.80;;;;;4.20;98579.00;;;;10472147;28;20205;-80
2021/12/10 03:55:23;;;;;;;1.77;0.70;;;;;4.10;98568.00;;;;10452939;28;20200;-80
2021/12/10 04:01:02;;;;;;;1.57;0.70;;;;;4.00;98561.00;;;;10446934;28;20205;-79
2021/12/10 04:06:38;;;;;;;2.40;0.97;;;;;4.00;98552.00;;;;10449561;28;20198;-80
2021/12/10 04:12:14;;;;;;;2.10;0.70;;;;;3.90;98548.00;;;;10451958;28;20217;-80
2021/12/10 04:17:51;;;;;;;0.80;0.50;;;;;3.80;98529.00;;;;10437684;28;20204;-80
2021/12/10 04:23:28;;;;;;;2.97;0.87;;;;;3.70;98531.00;;;;10471641;28;20210;-80
2021/12/10 04:29:06;;;;;;;2.10;0.90;;;;;3.70;98508.00;;;;10463505;28;20279;-80
2021/12/10 04:34:42;;;;;;;2.17;0.80;;;;;3.60;98499.00;;;;10448401;28;20732;-80
2021/12/10 04:40:22;;;;;;;3.73;0.90;;;;;3.60;98500.00;;;;10446510;28;20193;-80
2021/12/10 04:46:03;;;;;;;2.23;0.87;;;;;3.60;98484.00;;;;10447020;28;20604;-80
2021/12/10 04:51:53;;;;;;;3.07;1.17;;;;;3.50;98473.00;;;;10435379;28;20212;-80
2021/12/10 04:57:29;;;;;;;3.03;1.33;;;;;3.50;98459.00;;;;10426860;28;20256;-79
2021/12/10 05:03:06;;;;;;;2.83;1.27;;;;;3.50;98454.00;;;;10419577;28;20202;-79
2021/12/10 05:08:43;;;;;;;1.20;0.90;;;;;3.40;98438.00;;;;10464740;28;20197;-79
2021/12/10 05:14:20;;;;;;;2.63;1.20;;;;;3.40;98435.00;;;;10462292;28;20206;-79
2021/12/10 05:19:57;;;;;;;4.80;1.30;;;;;3.40;98436.00;;;;10456388;28;20221;-79
2021/12/10 05:25:35;;;;;;;3.27;1.00;;;;;3.40;98422.00;;;;10444038;28;20200;-78
2021/12/10 05:31:11;;;;;;;4.10;1.40;;;;;3.40;98432.00;;;;10457068;28;20194;-79
2021/12/10 05:36:47;;;;;;;1.43;0.60;;;;;3.40;98422.00;;;;10460602;28;20193;-79
2021/12/10 05:42:23;;;;;;;0.60;0.60;;;;;3.40;98412.00;;;;10479821;28;20189;-79
2021/12/10 05:47:59;;;;;;;2.27;0.67;;;;;3.40;98405.00;;;;10463026;28;20653;-79
2021/12/10 05:53:35;;;;;;;0.90;0.60;;;;;3.40;98402.00;;;;10475709;28;20200;-79
2021/12/10 05:59:12;;;;;;;5.13;1.10;;;;;3.40;98405.00;;;;10459229;28;20201;-79
2021/12/10 06:04:48;;;;;;;2.63;0.70;;;;;3.40;98403.00;;;;10483670;28;20273;-79
2021/12/10 06:10:12;;;;;;;1.23;0.60;;;;;3.30;98397.00;;;;10463218;28;20194;-79
2021/12/10 06:15:18;;;;;;;0.60;0.57;;;;;3.30;98381.00;;;;10469443;28;20200;-79
2021/12/10 06:20:25;;;;;;;1.57;0.70;;;;;3.30;98381.00;;;;10487952;28;20193;-79
2021/12/10 06:25:28;;;;;;;2.40;0.70;;;;;3.30;98375.00;;;;10489697;28;20193;-80
2021/12/10 06:30:33;;;;;;;1.70;0.60;;;;;3.30;98382.00;;;;10489134;28;20205;-80
2021/12/10 06:35:37;;;;;;;1.60;0.87;;;;;3.30;98388.00;;;;10454746;28;20221;-80
2021/12/10 06:40:42;;;;;;;1.90;0.60;;;;;3.30;98383.00;;;;10461745;28;20197;-80
2021/12/10 06:45:45;;;;;;;0.50;0.50;;;;;3.20;98391.00;;;;10490047;28;20185;-80
2021/12/10 06:50:50;;;;;;;2.00;0.50;;;;;3.20;98398.00;;;;10473533;28;20193;-80
2021/12/10 06:55:53;;;;;;;0.60;0.60;;;;;3.20;98397.00;;;;10489038;28;20583;-81
2021/12/10 07:00:59;;;;;;;2.20;0.57;;;;;3.20;98402.00;;;;10447487;28;20212;-80
2021/12/10 07:06:03;;;;;;;1.50;0.77;;;;;3.20;98393.00;;;;10432590;28;20204;-80
2021/12/10 07:11:08;;;;;;;1.17;0.67;;;;;3.10;98397.00;;;;10432496;28;20243;-80
2021/12/10 07:16:11;;;;;;;0.90;0.70;;;;;3.10;98396.00;;;;10461707;28;20299;-80
2021/12/10 07:21:15;;;;;;;2.70;0.70;;;;;3.10;98400.00;;;;10506121;28;20193;-80
2021/12/10 07:26:17;;;;;;;1.30;0.80;;;;;3.00;98406.00;;;;10472701;28;20246;-80
2021/12/10 07:31:19;;;;;;;2.60;0.97;;;;;3.00;98403.00;;;;10506581;28;20197;-80
2021/12/10 07:36:23;;;;;;;0.87;0.87;;;;;2.90;98403.00;;;;10489241;28;20217;-81
2021/12/10 07:41:25;;;;;;;1.90;1.00;;;;;2.90;98414.00;;;;10456867;28;20225;-80
2021/12/10 07:46:28;;;;;;;0.70;0.70;;;;;2.80;98401.00;;;;10504192;28;20257;-80
2021/12/10 07:51:31;;;;;;;1.57;0.83;;;;;2.70;98405.00;;;;10498275;28;20242;-80
2021/12/10 07:56:33;;;;;;;1.67;1.10;;;;;2.70;98411.00;;;;10498303;28;20644;-80
2021/12/10 08:01:35;;;;;;;2.27;1.10;;;;;2.60;98422.00;;;;10498801;28;20196;-81
2021/12/10 08:06:37;;;;;;;2.10;1.13;;;;;2.60;98420.00;;;;10482448;28;20197;-81
2021/12/10 08:11:40;;;;;;;2.33;1.03;;;;;2.50;98411.00;;;;10477167;28;20209;-81
2021/12/10 08:16:42;;;;;;;1.37;1.17;;;;;2.40;98408.00;;;;10463641;28;20566;-81
2021/12/10 08:21:44;;;;;;;0.90;0.90;;;;;2.40;98411.00;;;;10497525;28;20189;-81
2021/12/10 08:26:47;;;;;;;2.60;1.10;;;;;2.40;98409.00;;;;10480630;28;20189;-81
2021/12/10 08:31:49;;;;;;;1.23;1.13;;;;;2.40;98404.00;;;;10480674;28;20216;-81
2021/12/10 08:36:51;;;;;;;1.70;1.20;;;;;2.40;98413.00;;;;10480698;28;20655;-80
2021/12/10 08:41:56;;;;;;;2.83;1.33;;;;;2.40;98422.00;;;;10473877;28;20264;-81
2021/12/10 08:46:59;;;;;;;3.43;1.27;;;;;2.30;98417.00;;;;10471754;28;20197;-81
2021/12/10 08:52:03;;;;;;;1.73;1.40;;;;;2.20;98416.00;;;;10454163;28;20201;-81
2021/12/10 08:57:07;;;;;;;2.63;1.53;;;;;2.30;98420.00;;;;10437984;28;20239;-80
2021/12/10 09:02:13;;;;;;;1.43;1.33;;;;;2.30;98426.00;;;;10470562;28;20204;-80
2021/12/10 09:07:18;;;;;;;1.47;1.37;;;;;2.40;98422.00;;;;10487480;28;20228;-81
2021/12/10 09:12:25;;;;;;;2.53;1.73;;;;;2.40;98431.00;;;;10489322;28;20230;-80
2021/12/10 09:17:31;;;;;;;2.57;2.33;;;;;2.40;98427.00;;;;10494934;28;20714;-80
2021/12/10 09:22:33;;;;;;;2.57;1.90;;;;;2.50;98433.00;;;;10493129;28;20239;-80
2021/12/10 09:27:36;;;;;;;2.20;1.80;;;;;2.50;98447.00;;;;10486051;28;20194;-80
2021/12/10 09:32:39;;;;;;;3.07;2.30;;;;;2.50;98462.00;;;;10465502;28;20266;-80
2021/12/10 09:37:43;;;;;;;2.83;2.33;;;;;2.50;98470.00;;;;10459161;28;20242;-79
2021/12/10 09:42:53;;;;;;;3.67;2.40;;;;;2.50;98462.00;;;;10483715;28;20691;-78
2021/12/10 09:48:06;;;;;;;2.80;2.40;;;;;2.50;98478.00;;;;10485057;28;20205;-79
2021/12/10 09:53:10;;;;;;;2.90;2.37;;;;;2.50;98489.00;;;;10437606;28;20206;-79
2021/12/10 09:58:18;;;;;;;2.43;2.10;;;;;2.50;98492.00;;;;10489140;28;20731;-79
2021/12/10 10:03:26;;;;;;;2.43;2.07;;;;;2.60;98489.00;;;;10491113;28;20200;-79
2021/12/10 10:08:28;;;;;;;2.50;2.30;;;;;2.60;98500.00;;;;10475446;28;20242;-81
2021/12/10 10:13:35;;;;;;;3.73;2.60;;;;;2.60;98511.00;;;;10501643;28;20231;-81
2021/12/10 10:18:51;;;;;;;3.80;2.53;;;;;2.70;98522.00;;;;10470119;28;20228;-80
2021/12/10 10:23:55;;;;;;;3.17;2.33;;;;;2.70;98515.00;;;;10469035;28;20189;-80
2021/12/10 10:29:04;;;;;;;3.37;2.33;;;;;2.70;98518.00;;;;10474127;28;20288;-80
2021/12/10 10:34:07;;;;;;;2.50;2.30;;;;;2.60;98526.00;;;;10455616;28;20204;-80
2021/12/10 10:39:15;;;;;;;2.57;2.37;;;;;2.70;98528.00;;;;10480235;28;20188;-79
2021/12/10 10:44:18;;;;;;;2.70;2.50;;;;;2.80;98528.00;;;;10490005;28;20243;-79
2021/12/10 10:49:43;;;;;;;3.30;2.57;;;;;2.80;98543.00;;;;10522736;28;20264;-79
2021/12/10 10:54:47;;;;;;;2.43;2.10;;;;;2.80;98553.00;;;;10491618;28;20216;-79
2021/12/10 10:59:54;;;;;;;4.00;2.50;;;;;2.70;98551.00;;;;10481930;28;20189;-79
2021/12/10 11:05:10;;;;;;;3.47;2.57;;;;;2.70;98556.00;;;;10513057;28;20218;-78
2021/12/10 11:10:12;;;;;;;3.23;2.40;;;;;2.80;98565.00;;;;10492787;28;20211;-81
2021/12/10 11:15:17;;;;;;;4.73;2.00;;;;;2.70;98572.00;;;;10491224;28;20680;-80
2021/12/10 11:20:27;;;;;;;3.10;2.80;;;;;2.70;98584.00;;;;10492063;28;20193;-80
2021/12/10 11:25:43;;;;;;;8.27;2.90;;;;;2.80;98581.00;;;;10508199;28;20189;-81
2021/12/10 11:30:49;;;;;;;3.60;2.97;;;;;2.70;98586.00;;;;10450460;28;20203;-81
2021/12/10 11:35:59;;;;;;;3.63;2.97;;;;;2.70;98599.00;;;;10449192;28;20210;-81
2021/12/10 11:41:06;;;;;;;3.07;2.67;;;;;2.70;98608.00;;;;10482465;28;20250;-81
2021/12/10 11:46:30;;;;;;;4.97;2.53;;;;;2.60;98620.00;;;;10491690;28;20184;-81
2021/12/10 11:51:37;;;;;;;5.80;3.40;;;;;2.60;98626.00;;;;10491202;28;20193;-81
2021/12/10 11:56:43;;;;;;;7.40;6.03;;;;;2.60;98636.00;;;;10475898;28;20205;-81
2021/12/10 12:01:57;;;;;;;29.83;18.37;;;;;2.60;98637.00;;;;10473561;28;20201;-81
2021/12/10 12:07:29;;;;;;;6.03;4.87;;;;;2.60;98643.00;;;;10460636;28;20649;-81
2021/12/10 12:12:48;;;;;;;8.77;5.23;;;;;2.60;98647.00;;;;10473863;28;20205;-81
2021/12/10 12:18:00;;;;;;;8.57;5.83;;;;;2.70;98664.00;;;;10519732;28;20791;-81
2021/12/10 12:28:49;;;;;;;9.97;8.63;;;;;2.60;98673.00;;;;10514619;28;20225;-80
2021/12/10 12:34:21;;;;;;;10.43;7.00;;;;;2.60;98675.00;;;;10499204;28;20205;-81
2021/12/10 12:39:36;;;;;;;13.77;10.43;;;;;2.50;98683.00;;;;10482090;28;20660;-81
2021/12/10 12:44:41;;;;;;;8.73;7.60;;;;;2.40;98682.00;;;;10488005;28;20188;-81
2021/12/10 12:50:19;;;;;;;10.03;8.00;;;;;2.30;98701.00;;;;10491541;28;20188;-80
2021/12/10 12:55:37;;;;;;;9.37;8.23;;;;;2.40;98699.00;;;;10481528;28;20201;-81
2021/12/10 13:00:51;;;;;;;11.20;8.30;;;;;2.40;98717.00;;;;10504981;28;20215;-81
2021/12/10 13:05:56;;;;;;;10.37;8.60;;;;;2.50;98718.00;;;;10478706;28;20192;-81
2021/12/10 13:11:28;;;;;;;11.40;8.53;;;;;2.40;98721.00;;;;10521050;28;20197;-81
2021/12/10 13:16:37;;;;;;;11.60;8.33;;;;;2.40;98732.00;;;;10486382;28;20208;-81
2021/12/10 13:21:39;;;;;;;15.27;9.60;;;;;2.30;98736.00;;;;10493293;28;20197;-81
2021/12/10 13:26:41;;;;;;;12.30;8.83;;;;;2.40;98744.00;;;;10505621;28;20196;-81
2021/12/10 13:31:45;;;;;;;12.83;10.20;;;;;2.40;98740.00;;;;10466726;28;20193;-81
2021/12/10 13:36:47;;;;;;;15.03;11.20;;;;;2.50;98752.00;;;;10498627;28;20216;-81
2021/12/10 13:41:49;;;;;;;14.20;9.97;;;;;2.50;98760.00;;;;10492195;28;20189;-81
2021/12/10 13:46:53;;;;;;;20.70;13.03;;;;;2.50;98773.00;;;;10477474;28;20181;-80
2021/12/10 13:52:02;;;;;;;13.23;9.83;;;;;2.50;98775.00;;;;10498290;28;20186;-81
2021/12/10 13:57:05;;;;;;;15.83;11.17;;;;;2.40;98792.00;;;;10469315;28;20194;-81
2021/12/10 14:02:10;;;;;;;16.73;11.90;;;;;2.30;98800.00;;;;10494279;28;20216;-81
2021/12/10 14:07:20;;;;;;;18.00;12.63;;;;;2.30;98791.00;;;;10513799;28;20557;-81
2021/12/10 14:12:37;;;;;;;24.30;14.13;;;;;2.30;98804.00;;;;10494571;28;20222;-81
2021/12/10 14:18:02;;;;;;;23.73;14.53;;;;;2.30;98816.00;;;;10493880;28;20287;-81
2021/12/10 14:23:29;;;;;;;27.17;16.20;;;;;2.20;98826.00;;;;10481107;28;20256;-80
2021/12/10 14:29:01;;;;;;;28.90;17.73;;;;;2.20;98850.00;;;;10497219;28;20184;-80
2021/12/10 14:34:24;;;;;;;30.23;17.57;;;;;2.20;98854.00;;;;10469477;28;20205;-79
2021/12/10 14:39:26;;;;;;;27.73;16.70;;;;;2.30;98860.00;;;;10515380;28;20196;-80
2021/12/10 14:45:04;;;;;;;27.47;16.87;;;;;2.20;98879.00;;;;10463320;28;20179;-79
2021/12/10 14:50:09;;;;;;;25.47;16.87;;;;;2.10;98889.00;;;;10482402;28;20196;-80
2021/12/10 14:55:38;;;;;;;25.57;16.53;;;;;2.10;98899.00;;;;10476830;28;20672;-80
2021/12/10 15:01:12;;;;;;;17.17;11.90;;;;;2.00;98917.00;;;;10477101;28;20204;-79
2021/12/10 15:06:52;;;;;;;25.33;16.97;;;;;2.00;98929.00;;;;10497518;28;20184;-80
2021/12/10 15:12:14;;;;;;;21.90;14.93;;;;;2.00;98946.00;;;;10470373;28;20250;-79
2021/12/10 15:17:36;;;;;;;23.87;17.13;;;;;2.00;98965.00;;;;10486660;28;20269;-79
2021/12/10 15:22:39;;;;;;;24.73;15.40;;;;;1.90;98979.00;;;;10472574;28;20223;-79
2021/12/10 15:27:42;;;;;;;23.73;14.83;;;;;1.90;98989.00;;;;10470083;28;20205;-79
2021/12/10 15:32:47;;;;;;;22.77;15.53;;;;;1.90;98997.00;;;;10477481;28;20299;-79
2021/12/10 15:38:24;;;;;;;17.77;11.80;;;;;1.80;99003.00;;;;10489512;28;20193;-79
2021/12/10 15:43:30;;;;;;;21.87;14.23;;;;;1.80;99033.00;;;;10450330;28;20212;-80
2021/12/10 15:48:36;;;;;;;18.53;12.53;;;;;1.80;99041.00;;;;10505209;28;20402;-81
2021/12/10 15:53:52;;;;;;;23.73;14.00;;;;;1.80;99039.00;;;;10477961;28;20203;-80
2021/12/10 15:58:56;;;;;;;24.70;14.73;;;;;1.80;99060.00;;;;10510076;28;20202;-80
2021/12/10 16:04:07;;;;;;;24.97;16.17;;;;;1.80;99071.00;;;;10495548;28;20218;-79
2021/12/10 16:09:18;;;;;;;23.43;15.57;;;;;1.80;99088.00;;;;10483791;28;20189;-79
2021/12/10 16:14:21;;;;;;;28.73;19.03;;;;;1.80;99093.00;;;;10492143;28;20588;-79
2021/12/10 16:19:27;;;;;;;21.07;13.83;;;;;1.80;99109.00;;;;10497853;28;20287;-80
2021/12/10 16:24:38;;;;;;;26.10;17.57;;;;;1.70;99119.00;;;;10459117;28;20196;-80
2021/12/10 16:29:44;;;;;;;19.67;11.73;;;;;1.60;99134.00;;;;10513173;28;20189;-78
2021/12/10 16:34:54;;;;;;;22.23;14.33;;;;;1.50;99141.00;;;;10495773;28;20545;-78
2021/12/10 16:39:56;;;;;;;20.27;13.33;;;;;1.40;99151.00;;;;10505143;28;20202;-80
2021/12/10 16:44:58;;;;;;;14.70;9.33;;;;;1.30;99161.00;;;;10553833;28;20185;-80
2021/12/10 16:50:03;;;;;;;16.10;10.83;;;;;1.20;99178.00;;;;10462340;28;20189;-80
2021/12/10 16:55:16;;;;;;;18.67;11.83;;;;;1.10;99188.00;;;;10494433;28;20274;-80
2021/12/10 17:00:35;;;;;;;14.23;9.53;;;;;0.90;99201.00;;;;10457914;28;21659;-81
2021/12/10 17:05:50;;;;;;;18.50;11.90;;;;;0.90;99226.00;;;;10499577;28;20196;-80
2021/12/10 17:10:59;;;;;;;17.83;11.77;;;;;0.90;99227.00;;;;10510008;28;20189;-81
2021/12/10 17:16:13;;;;;;;17.97;11.77;;;;;0.90;99227.00;;;;10480882;28;20221;-80
2021/12/10 17:21:20;;;;;;;30.30;18.90;;;;;0.90;99248.00;;;;10483698;28;20189;-81
2021/12/10 17:26:31;;;;;;;15.60;10.50;;;;;0.90;99255.00;;;;10477912;28;20211;-80
2021/12/10 17:31:36;;;;;;;17.13;10.97;;;;;0.80;99267.00;;;;10496136;28;20242;-80
2021/12/10 17:36:47;;;;;;;20.43;12.83;;;;;0.80;99274.00;;;;10467820;28;20221;-80
2021/12/10 17:41:51;;;;;;;21.67;11.33;;;;;0.70;99284.00;;;;10471873;28;20266;-78
2021/12/10 17:46:58;;;;;;;20.50;13.93;;;;;0.70;99293.00;;;;10455577;28;20197;-76
2021/12/10 17:52:06;;;;;;;23.60;15.03;;;;;0.60;99296.00;;;;10466607;28;20614;-76
2021/12/10 17:57:13;;;;;;;21.07;14.07;;;;;0.60;99316.00;;;;10501207;28;20201;-76
2021/12/10 18:02:19;;;;;;;24.87;14.70;;;;;0.60;99328.00;;;;10491844;28;20254;-76
2021/12/10 18:07:23;;;;;;;21.70;14.70;;;;;0.60;99343.00;;;;10489118;28;20193;-75
2021/12/10 18:12:29;;;;;;;22.67;15.23;;;;;0.60;99351.00;;;;10479593;28;20201;-75
2021/12/10 18:17:35;;;;;;;21.73;15.83;;;;;0.60;99361.00;;;;10480244;28;20276;-76
2021/12/10 18:23:05;;;;;;;26.83;17.80;;;;;0.60;99375.00;;;;10465387;28;20201;-76
2021/12/10 18:28:08;;;;;;;25.10;18.33;;;;;0.60;99396.00;;;;10508556;28;20195;-76
2021/12/10 18:33:11;;;;;;;25.83;18.53;;;;;0.70;99417.00;;;;10500019;28;20201;-76
2021/12/10 18:38:16;;;;;;;26.03;18.23;;;;;0.70;99432.00;;;;10498046;28;20236;-77
2021/12/10 18:43:24;;;;;;;26.87;17.93;;;;;0.70;99452.00;;;;10467484;28;20254;-77
2021/12/10 18:48:30;;;;;;;29.67;18.90;;;;;0.70;99460.00;;;;10503536;28;20193;-77
2021/12/10 18:53:36;;;;;;;27.80;17.70;;;;;0.70;99472.00;;;;10519356;28;20190;-78
2021/12/10 18:58:42;;;;;;;31.80;19.27;;;;;0.80;99487.00;;;;10478972;28;20190;-79
2021/12/10 19:03:54;;;;;;;33.37;18.97;;;;;0.80;99503.00;;;;10449107;28;20197;-78
2021/12/10 19:09:03;;;;;;;27.53;16.20;;;;;0.80;99511.00;;;;10452302;28;20197;-79
2021/12/10 19:14:16;;;;;;;25.17;14.77;;;;;0.90;99519.00;;;;10434997;28;20213;-79
2021/12/10 19:19:23;;;;;;;32.90;19.97;;;;;0.90;99539.00;;;;10452614;28;20209;-79
2021/12/10 19:24:39;;;;;;;33.27;19.33;;;;;1.00;99561.00;;;;10409243;28;20243;-79
2021/12/10 19:29:44;;;;;;;34.90;19.33;;;;;1.00;99570.00;;;;10423306;28;20193;-79
2021/12/10 19:35:07;;;;;;;31.70;18.17;;;;;1.10;99568.00;;;;10467545;28;20250;-79
2021/12/10 19:40:13;;;;;;;31.33;18.53;;;;;1.10;99586.00;;;;10469691;28;20212;-79
2021/12/10 19:45:25;;;;;;;32.30;18.43;;;;;1.20;99593.00;;;;10433175;28;20186;-78
2021/12/10 19:50:46;;;;;;;34.63;19.17;;;;;1.20;99600.00;;;;10436048;28;20198;-79
2021/12/10 19:56:06;;;;;;;37.83;22.67;;;;;1.30;99615.00;;;;10475834;28;20262;-78
2021/12/10 20:01:36;;;;;;;34.77;20.87;;;;;1.30;99630.00;;;;10459740;28;20197;-79
2021/12/10 20:06:43;;;;;;;38.23;19.40;;;;;1.40;99646.00;;;;10510728;28;20205;-79
2021/12/10 20:11:58;;;;;;;36.00;20.77;;;;;1.40;99647.00;;;;10486785;28;20297;-78
2021/12/10 20:17:10;;;;;;;37.07;23.37;;;;;1.50;99649.00;;;;10457468;28;20205;-78
2021/12/10 20:22:20;;;;;;;34.37;22.07;;;;;1.60;99663.00;;;;10456836;28;20194;-78
2021/12/10 20:27:22;;;;;;;34.53;23.40;;;;;1.60;99693.00;;;;10467333;28;20239;-79
2021/12/10 20:32:37;;;;;;;40.03;23.83;;;;;1.70;99703.00;;;;10475325;28;20225;-79
2021/12/10 20:37:52;;;;;;;40.17;25.03;;;;;1.80;99712.00;;;;10480864;28;20255;-79
2021/12/10 20:43:00;;;;;;;42.07;26.57;;;;;1.80;99729.00;;;;10491163;28;20205;-79
2021/12/10 20:48:08;;;;;;;39.63;24.30;;;;;1.90;99743.00;;;;10470813;28;20243;-79
2021/12/10 20:53:23;;;;;;;43.87;26.83;;;;;1.90;99750.00;;;;10485778;28;20193;-79
2021/12/10 20:58:33;;;;;;;43.07;26.50;;;;;2.00;99763.00;;;;10484784;28;20195;-79
2021/12/10 21:04:01;;;;;;;45.10;27.07;;;;;2.10;99764.00;;;;10502224;28;20193;-79
2021/12/10 21:09:08;;;;;;;42.97;27.80;;;;;2.10;99780.00;;;;10441746;28;20197;-79
2021/12/10 21:14:22;;;;;;;41.63;26.73;;;;;2.20;99780.00;;;;10440263;28;20239;-79
2021/12/10 21:19:34;;;;;;;41.43;26.40;;;;;2.20;99793.00;;;;10440654;28;20319;-79
2021/12/10 21:25:08;;;;;;;41.47;25.73;;;;;2.20;99796.00;;;;10469581;28;20181;-79
2021/12/10 21:30:31;;;;;;;40.60;27.20;;;;;2.30;99795.00;;;;10488908;28;20386;-79
2021/12/10 21:35:48;;;;;;;40.30;26.47;;;;;2.30;99805.00;;;;10496827;28;20205;-79
2021/12/10 21:41:16;;;;;;;46.90;26.93;;;;;2.30;99810.00;;;;10475586;28;20288;-79
2021/12/10 21:46:37;;;;;;;34.77;23.83;;;;;2.40;99822.00;;;;10482211;28;20193;-79
2021/12/10 21:51:44;;;;;;;37.47;24.33;;;;;2.40;99843.00;;;;10461085;28;20246;-79
2021/12/10 21:56:51;;;;;;;38.90;23.77;;;;;2.40;99839.00;;;;10440991;28;20213;-79
2021/12/10 22:02:03;;;;;;;34.40;22.87;;;;;2.50;99850.00;;;;10453827;28;20267;-79
2021/12/10 22:07:23;;;;;;;36.00;23.47;;;;;2.50;99861.00;;;;10436787;28;20243;-79
2021/12/10 22:12:37;;;;;;;36.37;22.87;;;;;2.60;99880.00;;;;10469167;28;20212;-79
2021/12/10 22:17:51;;;;;;;35.97;20.97;;;;;2.60;99882.00;;;;10467851;28;20212;-78
2021/12/10 22:23:13;;;;;;;31.93;20.43;;;;;2.60;99896.00;;;;10453903;28;20232;-78
2021/12/10 22:28:34;;;;;;;31.67;20.23;;;;;2.60;99914.00;;;;10466621;28;20285;-78
2021/12/10 22:33:40;;;;;;;32.17;20.70;;;;;2.60;99919.00;;;;10482376;28;20302;-78
2021/12/10 22:38:56;;;;;;;28.63;19.10;;;;;2.60;99931.00;;;;10495779;28;20197;-79
2021/12/10 22:44:07;;;;;;;29.03;19.93;;;;;2.60;99950.00;;;;10449786;28;20186;-78
2021/12/10 22:49:24;;;;;;;29.13;20.40;;;;;2.60;99966.00;;;;10482482;28;20680;-78
2021/12/10 22:54:51;;;;;;;34.40;21.90;;;;;2.60;99975.00;;;;10449114;28;20212;-78
2021/12/10 22:59:57;;;;;;;35.00;20.77;;;;;2.60;99982.00;;;;10464927;28;20190;-78
2021/12/10 23:05:08;;;;;;;31.27;19.00;;;;;2.70;99992.00;;;;10501538;28;20623;-78
2021/12/10 23:10:14;;;;;;;31.77;21.33;;;;;2.60;100002.00;;;;10506309;28;20201;-78
2021/12/10 23:15:42;;;;;;;32.80;21.30;;;;;2.70;100022.00;;;;10487610;28;20205;-78
2021/12/10 23:20:44;;;;;;;34.03;23.20;;;;;2.70;100022.00;;;;10448144;28;20273;-78
2021/12/10 23:25:50;;;;;;;37.03;24.00;;;;;2.70;100032.00;;;;10464670;28;20190;-78
2021/12/10 23:31:01;;;;;;;34.63;21.07;;;;;2.70;100042.00;;;;10446717;28;20722;-78
2021/12/10 23:36:09;;;;;;;36.10;21.60;;;;;2.70;100056.00;;;;10431972;28;20216;-78
2021/12/10 23:41:26;;;;;;;37.40;22.07;;;;;2.80;100064.00;;;;10481474;28;20193;-78
2021/12/10 23:46:37;;;;;;;33.27;22.70;;;;;2.80;100075.00;;;;10473094;28;20242;-78
2021/12/10 23:51:47;;;;;;;37.47;21.93;;;;;2.90;100086.00;;;;10488495;28;20208;-78
2021/12/10 23:56:51;;;;;;;35.93;22.47;;;;;2.90;100090.00;;;;10483488;28;20253;-78
